sensor_id;sensor_type;location;lat;lon;timestamp;P1;durP1;ratioP1;P2;durP2;ratioP2
40116;SDS011;25829;50.228;18.936;2023-04-24T00:00:37;9.25;;;8.25;;
40116;SDS011;25829;50.228;18.936;2023-04-24T00:03:40;13.85;;;9.13;;
40116;SDS011;25829;50.228;18.936;2023-04-24T00:06:41;13.15;;;9.05;;
40116;SDS011;25829;50.228;18.936;2023-04-24T00:09:43;11.82;;;8.45;;
40116;SDS011;25829;50.228;18.936;2023-04-24T00:12:44;10.57;;;8.30;;
40116;SDS011;25829;50.228;18.936;2023-04-24T00:15:44;14.98;;;9.90;;
40116;SDS011;25829;50.228;18.936;2023-04-24T00:18:45;12.75;;;10.05;;
40116;SDS011;25829;50.228;18.936;2023-04-24T00:21:48;13.15;;;9.23;;
40116;SDS011;25829;50.228;18.936;2023-04-24T00:24:51;16.73;;;10.75;;
40116;SDS011;25829;50.228;18.936;2023-04-24T00:27:52;15.35;;;10.57;;
40116;SDS011;25829;50.228;18.936;2023-04-24T00:30:53;17.20;;;10.07;;
40116;SDS011;25829;50.228;18.936;2023-04-24T00:33:54;16.52;;;10.85;;
40116;SDS011;25829;50.228;18.936;2023-04-24T00:36:55;15.52;;;10.48;;
40116;SDS011;25829;50.228;18.936;2023-04-24T00:39:55;15.02;;;10.65;;
40116;SDS011;25829;50.228;18.936;2023-04-24T00:42:56;18.52;;;11.32;;
40116;SDS011;25829;50.228;18.936;2023-04-24T00:45:57;16.00;;;10.63;;
40116;SDS011;25829;50.228;18.936;2023-04-24T00:48:58;13.02;;;9.75;;
40116;SDS011;25829;50.228;18.936;2023-04-24T00:51:59;15.13;;;10.85;;
40116;SDS011;25829;50.228;18.936;2023-04-24T00:55:00;12.88;;;9.75;;
40116;SDS011;25829;50.228;18.936;2023-04-24T00:58:01;11.48;;;9.43;;
40116;SDS011;25829;50.228;18.936;2023-04-24T01:01:02;12.77;;;9.93;;
40116;SDS011;25829;50.228;18.936;2023-04-24T01:04:07;15.07;;;9.63;;
40116;SDS011;25829;50.228;18.936;2023-04-24T01:07:08;13.50;;;9.73;;
40116;SDS011;25829;50.228;18.936;2023-04-24T01:10:11;10.90;;;8.70;;
40116;SDS011;25829;50.228;18.936;2023-04-24T01:13:14;10.90;;;8.45;;
40116;SDS011;25829;50.228;18.936;2023-04-24T01:16:18;13.68;;;9.77;;
40116;SDS011;25829;50.228;18.936;2023-04-24T01:19:21;12.15;;;9.57;;
40116;SDS011;25829;50.228;18.936;2023-04-24T01:22:21;15.63;;;10.07;;
40116;SDS011;25829;50.228;18.936;2023-04-24T01:25:23;13.68;;;9.63;;
40116;SDS011;25829;50.228;18.936;2023-04-24T01:28:26;12.70;;;9.35;;
40116;SDS011;25829;50.228;18.936;2023-04-24T01:31:27;12.00;;;9.10;;
40116;SDS011;25829;50.228;18.936;2023-04-24T01:34:29;12.32;;;9.20;;
40116;SDS011;25829;50.228;18.936;2023-04-24T01:37:30;11.80;;;9.50;;
40116;SDS011;25829;50.228;18.936;2023-04-24T01:40:32;12.50;;;8.57;;
40116;SDS011;25829;50.228;18.936;2023-04-24T01:43:33;11.55;;;8.27;;
40116;SDS011;25829;50.228;18.936;2023-04-24T01:46:34;11.15;;;8.70;;
40116;SDS011;25829;50.228;18.936;2023-04-24T01:49:38;13.30;;;9.23;;
40116;SDS011;25829;50.228;18.936;2023-04-24T01:52:39;10.50;;;8.52;;
40116;SDS011;25829;50.228;18.936;2023-04-24T01:55:40;10.57;;;8.43;;
40116;SDS011;25829;50.228;18.936;2023-04-24T01:58:41;10.35;;;8.38;;
40116;SDS011;25829;50.228;18.936;2023-04-24T02:01:43;11.57;;;8.23;;
40116;SDS011;25829;50.228;18.936;2023-04-24T02:04:44;13.10;;;7.53;;
40116;SDS011;25829;50.228;18.936;2023-04-24T02:07:45;9.25;;;7.60;;
40116;SDS011;25829;50.228;18.936;2023-04-24T02:10:46;10.07;;;8.13;;
40116;SDS011;25829;50.228;18.936;2023-04-24T02:13:46;12.13;;;7.38;;
40116;SDS011;25829;50.228;18.936;2023-04-24T02:16:47;12.60;;;8.18;;
40116;SDS011;25829;50.228;18.936;2023-04-24T02:19:48;11.80;;;7.70;;
40116;SDS011;25829;50.228;18.936;2023-04-24T02:22:50;10.80;;;7.40;;
40116;SDS011;25829;50.228;18.936;2023-04-24T02:25:52;9.32;;;6.72;;
40116;SDS011;25829;50.228;18.936;2023-04-24T02:28:54;7.88;;;6.93;;
40116;SDS011;25829;50.228;18.936;2023-04-24T02:31:55;9.98;;;7.10;;
40116;SDS011;25829;50.228;18.936;2023-04-24T02:34:56;10.75;;;7.60;;
40116;SDS011;25829;50.228;18.936;2023-04-24T02:37:56;9.63;;;7.35;;
40116;SDS011;25829;50.228;18.936;2023-04-24T02:40:57;8.05;;;6.13;;
40116;SDS011;25829;50.228;18.936;2023-04-24T02:44:00;9.77;;;7.13;;
40116;SDS011;25829;50.228;18.936;2023-04-24T02:47:01;9.35;;;7.30;;
40116;SDS011;25829;50.228;18.936;2023-04-24T02:50:02;10.50;;;6.60;;
40116;SDS011;25829;50.228;18.936;2023-04-24T02:53:03;9.20;;;6.97;;
40116;SDS011;25829;50.228;18.936;2023-04-24T02:56:04;9.75;;;6.90;;
40116;SDS011;25829;50.228;18.936;2023-04-24T02:59:05;11.13;;;6.80;;
40116;SDS011;25829;50.228;18.936;2023-04-24T03:02:06;9.60;;;6.72;;
40116;SDS011;25829;50.228;18.936;2023-04-24T03:05:07;9.50;;;6.85;;
40116;SDS011;25829;50.228;18.936;2023-04-24T03:08:08;13.35;;;7.18;;
40116;SDS011;25829;50.228;18.936;2023-04-24T03:11:08;8.02;;;6.50;;
40116;SDS011;25829;50.228;18.936;2023-04-24T03:14:09;7.47;;;5.93;;
40116;SDS011;25829;50.228;18.936;2023-04-24T03:17:11;10.50;;;6.82;;
40116;SDS011;25829;50.228;18.936;2023-04-24T03:20:12;8.32;;;6.43;;
40116;SDS011;25829;50.228;18.936;2023-04-24T03:23:14;8.73;;;5.93;;
40116;SDS011;25829;50.228;18.936;2023-04-24T03:26:15;12.10;;;6.45;;
40116;SDS011;25829;50.228;18.936;2023-04-24T03:29:28;7.38;;;6.03;;
40116;SDS011;25829;50.228;18.936;2023-04-24T03:32:29;9.48;;;6.57;;
40116;SDS011;25829;50.228;18.936;2023-04-24T03:35:32;9.87;;;6.00;;
40116;SDS011;25829;50.228;18.936;2023-04-24T03:38:37;9.27;;;6.35;;
40116;SDS011;25829;50.228;18.936;2023-04-24T03:41:57;8.70;;;6.03;;
40116;SDS011;25829;50.228;18.936;2023-04-24T03:45:07;11.63;;;5.95;;
40116;SDS011;25829;50.228;18.936;2023-04-24T03:48:11;6.50;;;5.60;;
40116;SDS011;25829;50.228;18.936;2023-04-24T03:51:12;9.48;;;6.00;;
40116;SDS011;25829;50.228;18.936;2023-04-24T03:54:17;9.60;;;6.63;;
40116;SDS011;25829;50.228;18.936;2023-04-24T03:57:21;8.20;;;5.82;;
40116;SDS011;25829;50.228;18.936;2023-04-24T04:00:35;10.00;;;6.30;;
40116;SDS011;25829;50.228;18.936;2023-04-24T04:03:56;9.18;;;6.15;;
40116;SDS011;25829;50.228;18.936;2023-04-24T04:06:59;8.48;;;6.75;;
40116;SDS011;25829;50.228;18.936;2023-04-24T04:10:04;7.47;;;5.45;;
40116;SDS011;25829;50.228;18.936;2023-04-24T04:13:07;8.43;;;5.82;;
40116;SDS011;25829;50.228;18.936;2023-04-24T04:16:09;8.18;;;6.10;;
40116;SDS011;25829;50.228;18.936;2023-04-24T04:19:10;8.88;;;6.50;;
40116;SDS011;25829;50.228;18.936;2023-04-24T04:22:11;8.68;;;6.03;;
40116;SDS011;25829;50.228;18.936;2023-04-24T04:25:16;6.50;;;5.53;;
40116;SDS011;25829;50.228;18.936;2023-04-24T04:28:19;9.82;;;6.25;;
40116;SDS011;25829;50.228;18.936;2023-04-24T04:31:22;8.52;;;6.75;;
40116;SDS011;25829;50.228;18.936;2023-04-24T04:34:23;8.10;;;6.35;;
40116;SDS011;25829;50.228;18.936;2023-04-24T04:37:25;8.95;;;6.32;;
40116;SDS011;25829;50.228;18.936;2023-04-24T04:40:46;9.15;;;6.05;;
40116;SDS011;25829;50.228;18.936;2023-04-24T04:43:52;9.80;;;6.28;;
40116;SDS011;25829;50.228;18.936;2023-04-24T04:46:53;13.68;;;5.97;;
40116;SDS011;25829;50.228;18.936;2023-04-24T04:50:01;7.10;;;5.95;;
40116;SDS011;25829;50.228;18.936;2023-04-24T04:53:02;7.97;;;6.18;;
40116;SDS011;25829;50.228;18.936;2023-04-24T04:56:10;10.52;;;6.35;;
40116;SDS011;25829;50.228;18.936;2023-04-24T05:07:39;7.93;;;6.05;;
40116;SDS011;25829;50.228;18.936;2023-04-24T05:34:33;6.20;;;5.07;;
40116;SDS011;25829;50.228;18.936;2023-04-24T05:37:34;8.02;;;5.30;;
40116;SDS011;25829;50.228;18.936;2023-04-24T05:40:35;7.13;;;5.25;;
40116;SDS011;25829;50.228;18.936;2023-04-24T05:43:36;6.80;;;4.82;;
40116;SDS011;25829;50.228;18.936;2023-04-24T05:46:42;8.73;;;5.00;;
40116;SDS011;25829;50.228;18.936;2023-04-24T05:49:45;9.85;;;4.90;;
40116;SDS011;25829;50.228;18.936;2023-04-24T05:52:45;7.47;;;5.18;;
40116;SDS011;25829;50.228;18.936;2023-04-24T05:59:45;7.32;;;5.15;;
40116;SDS011;25829;50.228;18.936;2023-04-24T06:03:02;6.75;;;5.45;;
40116;SDS011;25829;50.228;18.936;2023-04-24T06:06:05;5.70;;;5.20;;
40116;SDS011;25829;50.228;18.936;2023-04-24T06:09:10;5.78;;;4.65;;
40116;SDS011;25829;50.228;18.936;2023-04-24T06:12:13;7.53;;;5.10;;
40116;SDS011;25829;50.228;18.936;2023-04-24T06:15:27;10.38;;;5.13;;
40116;SDS011;25829;50.228;18.936;2023-04-24T06:18:33;8.10;;;4.82;;
40116;SDS011;25829;50.228;18.936;2023-04-24T06:21:34;7.35;;;4.20;;
40116;SDS011;25829;50.228;18.936;2023-04-24T06:24:54;7.63;;;4.60;;
40116;SDS011;25829;50.228;18.936;2023-04-24T06:27:58;6.43;;;4.20;;
40116;SDS011;25829;50.228;18.936;2023-04-24T06:31:07;7.53;;;4.15;;
40116;SDS011;25829;50.228;18.936;2023-04-24T06:34:12;4.63;;;4.20;;
40116;SDS011;25829;50.228;18.936;2023-04-24T06:37:31;6.13;;;4.20;;
40116;SDS011;25829;50.228;18.936;2023-04-24T06:40:32;4.93;;;4.35;;
40116;SDS011;25829;50.228;18.936;2023-04-24T06:43:33;5.32;;;4.22;;
40116;SDS011;25829;50.228;18.936;2023-04-24T06:46:34;4.72;;;4.22;;
40116;SDS011;25829;50.228;18.936;2023-04-24T06:49:44;5.70;;;4.63;;
40116;SDS011;25829;50.228;18.936;2023-04-24T06:59:04;6.45;;;4.22;;
40116;SDS011;25829;50.228;18.936;2023-04-24T07:02:05;7.20;;;4.32;;
40116;SDS011;25829;50.228;18.936;2023-04-24T07:05:13;6.63;;;4.50;;
40116;SDS011;25829;50.228;18.936;2023-04-24T07:08:15;7.22;;;4.40;;
40116;SDS011;25829;50.228;18.936;2023-04-24T07:11:35;4.03;;;3.63;;
40116;SDS011;25829;50.228;18.936;2023-04-24T07:14:38;5.75;;;4.10;;
40116;SDS011;25829;50.228;18.936;2023-04-24T07:17:41;6.18;;;3.67;;
40116;SDS011;25829;50.228;18.936;2023-04-24T07:20:54;6.63;;;3.95;;
40116;SDS011;25829;50.228;18.936;2023-04-24T07:24:05;4.90;;;3.63;;
40116;SDS011;25829;50.228;18.936;2023-04-24T07:27:13;5.40;;;3.75;;
40116;SDS011;25829;50.228;18.936;2023-04-24T07:30:15;4.38;;;3.78;;
40116;SDS011;25829;50.228;18.936;2023-04-24T07:33:15;10.00;;;3.97;;
40116;SDS011;25829;50.228;18.936;2023-04-24T07:36:16;5.82;;;3.78;;
40116;SDS011;25829;50.228;18.936;2023-04-24T07:39:19;4.63;;;4.18;;
40116;SDS011;25829;50.228;18.936;2023-04-24T07:42:19;4.70;;;3.70;;
40116;SDS011;25829;50.228;18.936;2023-04-24T07:45:21;7.25;;;3.92;;
40116;SDS011;25829;50.228;18.936;2023-04-24T07:48:23;6.75;;;3.75;;
40116;SDS011;25829;50.228;18.936;2023-04-24T07:51:26;4.25;;;3.85;;
40116;SDS011;25829;50.228;18.936;2023-04-24T07:54:31;4.22;;;3.42;;
40116;SDS011;25829;50.228;18.936;2023-04-24T07:57:37;8.88;;;3.80;;
40116;SDS011;25829;50.228;18.936;2023-04-24T08:00:51;7.82;;;3.83;;
40116;SDS011;25829;50.228;18.936;2023-04-24T08:04:01;3.50;;;3.20;;
40116;SDS011;25829;50.228;18.936;2023-04-24T08:11:02;3.78;;;3.47;;
40116;SDS011;25829;50.228;18.936;2023-04-24T08:14:13;5.20;;;3.88;;
40116;SDS011;25829;50.228;18.936;2023-04-24T08:17:16;4.18;;;3.78;;
40116;SDS011;25829;50.228;18.936;2023-04-24T08:20:21;8.43;;;3.83;;
40116;SDS011;25829;50.228;18.936;2023-04-24T08:23:25;5.97;;;4.25;;
40116;SDS011;25829;50.228;18.936;2023-04-24T08:26:26;6.45;;;3.72;;
40116;SDS011;25829;50.228;18.936;2023-04-24T08:29:46;7.30;;;3.90;;
40116;SDS011;25829;50.228;18.936;2023-04-24T08:32:47;5.68;;;4.03;;
40116;SDS011;25829;50.228;18.936;2023-04-24T08:35:48;4.97;;;4.05;;
40116;SDS011;25829;50.228;18.936;2023-04-24T08:38:50;3.72;;;3.38;;
40116;SDS011;25829;50.228;18.936;2023-04-24T08:41:51;3.50;;;3.20;;
40116;SDS011;25829;50.228;18.936;2023-04-24T08:44:53;4.65;;;4.20;;
40116;SDS011;25829;50.228;18.936;2023-04-24T08:48:03;3.72;;;3.42;;
40116;SDS011;25829;50.228;18.936;2023-04-24T08:51:08;5.25;;;3.72;;
40116;SDS011;25829;50.228;18.936;2023-04-24T08:54:15;4.20;;;3.80;;
40116;SDS011;25829;50.228;18.936;2023-04-24T08:57:17;6.22;;;4.20;;
40116;SDS011;25829;50.228;18.936;2023-04-24T09:00:21;6.82;;;4.30;;
40116;SDS011;25829;50.228;18.936;2023-04-24T09:03:22;4.50;;;3.70;;
40116;SDS011;25829;50.228;18.936;2023-04-24T09:06:23;6.03;;;4.07;;
40116;SDS011;25829;50.228;18.936;2023-04-24T09:09:26;6.15;;;4.15;;
40116;SDS011;25829;50.228;18.936;2023-04-24T09:12:30;5.65;;;4.10;;
40116;SDS011;25829;50.228;18.936;2023-04-24T09:15:34;6.00;;;4.32;;
40116;SDS011;25829;50.228;18.936;2023-04-24T09:18:45;6.85;;;4.32;;
40116;SDS011;25829;50.228;18.936;2023-04-24T09:21:54;4.47;;;3.80;;
40116;SDS011;25829;50.228;18.936;2023-04-24T09:25:15;4.40;;;4.00;;
40116;SDS011;25829;50.228;18.936;2023-04-24T09:28:19;6.10;;;4.25;;
40116;SDS011;25829;50.228;18.936;2023-04-24T09:31:27;4.55;;;4.15;;
40116;SDS011;25829;50.228;18.936;2023-04-24T09:38:07;4.40;;;3.78;;
40116;SDS011;25829;50.228;18.936;2023-04-24T09:51:48;5.65;;;4.15;;
40116;SDS011;25829;50.228;18.936;2023-04-24T09:59:17;4.30;;;3.90;;
40116;SDS011;25829;50.228;18.936;2023-04-24T10:02:19;5.97;;;4.43;;
40116;SDS011;25829;50.228;18.936;2023-04-24T10:05:24;5.10;;;3.70;;
40116;SDS011;25829;50.228;18.936;2023-04-24T10:08:27;5.85;;;3.63;;
40116;SDS011;25829;50.228;18.936;2023-04-24T10:12:09;4.80;;;4.03;;
40116;SDS011;25829;50.228;18.936;2023-04-24T10:15:14;5.50;;;3.88;;
40116;SDS011;25829;50.228;18.936;2023-04-24T10:18:30;5.28;;;4.30;;
40116;SDS011;25829;50.228;18.936;2023-04-24T10:21:31;4.15;;;3.75;;
40116;SDS011;25829;50.228;18.936;2023-04-24T10:24:33;4.75;;;4.15;;
40116;SDS011;25829;50.228;18.936;2023-04-24T10:27:35;4.93;;;4.38;;
40116;SDS011;25829;50.228;18.936;2023-04-24T10:30:56;4.22;;;3.83;;
40116;SDS011;25829;50.228;18.936;2023-04-24T10:33:58;5.53;;;4.00;;
40116;SDS011;25829;50.228;18.936;2023-04-24T10:37:04;6.30;;;3.80;;
40116;SDS011;25829;50.228;18.936;2023-04-24T10:40:11;4.07;;;3.67;;
40116;SDS011;25829;50.228;18.936;2023-04-24T10:43:17;7.40;;;3.45;;
40116;SDS011;25829;50.228;18.936;2023-04-24T10:46:31;9.68;;;4.07;;
40116;SDS011;25829;50.228;18.936;2023-04-24T10:49:32;5.07;;;3.97;;
40116;SDS011;25829;50.228;18.936;2023-04-24T10:52:51;6.00;;;3.40;;
40116;SDS011;25829;50.228;18.936;2023-04-24T10:59:26;4.50;;;3.67;;
40116;SDS011;25829;50.228;18.936;2023-04-24T11:02:37;6.97;;;4.22;;
40116;SDS011;25829;50.228;18.936;2023-04-24T11:09:45;5.28;;;4.38;;
40116;SDS011;25829;50.228;18.936;2023-04-24T11:12:46;5.88;;;4.20;;
40116;SDS011;25829;50.228;18.936;2023-04-24T11:19:31;4.95;;;3.92;;
40116;SDS011;25829;50.228;18.936;2023-04-24T11:22:45;5.68;;;4.00;;
40116;SDS011;25829;50.228;18.936;2023-04-24T11:25:45;7.72;;;3.95;;
40116;SDS011;25829;50.228;18.936;2023-04-24T11:29:13;7.63;;;4.32;;
40116;SDS011;25829;50.228;18.936;2023-04-24T11:35:40;6.25;;;5.50;;
40116;SDS011;25829;50.228;18.936;2023-04-24T11:42:15;4.30;;;3.90;;
40116;SDS011;25829;50.228;18.936;2023-04-24T11:45:23;7.70;;;4.10;;
40116;SDS011;25829;50.228;18.936;2023-04-24T11:51:54;5.55;;;3.97;;
40116;SDS011;25829;50.228;18.936;2023-04-24T11:54:56;6.10;;;4.55;;
40116;SDS011;25829;50.228;18.936;2023-04-24T11:57:58;9.88;;;5.20;;
40116;SDS011;25829;50.228;18.936;2023-04-24T12:01:00;5.40;;;4.13;;
40116;SDS011;25829;50.228;18.936;2023-04-24T12:04:01;6.95;;;4.60;;
40116;SDS011;25829;50.228;18.936;2023-04-24T12:07:02;4.63;;;4.22;;
40116;SDS011;25829;50.228;18.936;2023-04-24T12:10:07;5.95;;;4.28;;
40116;SDS011;25829;50.228;18.936;2023-04-24T12:13:14;8.00;;;4.03;;
40116;SDS011;25829;50.228;18.936;2023-04-24T12:16:15;4.78;;;3.78;;
40116;SDS011;25829;50.228;18.936;2023-04-24T12:19:22;4.60;;;4.20;;
40116;SDS011;25829;50.228;18.936;2023-04-24T12:25:50;6.03;;;3.70;;
40116;SDS011;25829;50.228;18.936;2023-04-24T12:28:51;4.00;;;3.55;;
40116;SDS011;25829;50.228;18.936;2023-04-24T12:35:24;6.47;;;4.03;;
40116;SDS011;25829;50.228;18.936;2023-04-24T12:38:26;4.10;;;3.80;;
40116;SDS011;25829;50.228;18.936;2023-04-24T12:45:18;5.25;;;3.03;;
40116;SDS011;25829;50.228;18.936;2023-04-24T12:48:19;3.13;;;2.83;;
40116;SDS011;25829;50.228;18.936;2023-04-24T12:51:21;4.93;;;3.28;;
40116;SDS011;25829;50.228;18.936;2023-04-24T12:54:23;4.05;;;3.10;;
40116;SDS011;25829;50.228;18.936;2023-04-24T12:57:24;5.50;;;3.30;;
40116;SDS011;25829;50.228;18.936;2023-04-24T13:00:26;2.97;;;2.78;;
40116;SDS011;25829;50.228;18.936;2023-04-24T13:03:26;2.60;;;2.40;;
40116;SDS011;25829;50.228;18.936;2023-04-24T13:06:29;3.17;;;2.88;;
40116;SDS011;25829;50.228;18.936;2023-04-24T13:09:31;3.47;;;2.80;;
40116;SDS011;25829;50.228;18.936;2023-04-24T13:12:34;2.97;;;2.65;;
40116;SDS011;25829;50.228;18.936;2023-04-24T13:15:35;3.38;;;2.60;;
40116;SDS011;25829;50.228;18.936;2023-04-24T13:18:36;3.28;;;2.97;;
40116;SDS011;25829;50.228;18.936;2023-04-24T13:21:55;5.60;;;3.17;;
40116;SDS011;25829;50.228;18.936;2023-04-24T13:28:51;5.05;;;3.08;;
40116;SDS011;25829;50.228;18.936;2023-04-24T13:33:10;3.20;;;2.90;;
40116;SDS011;25829;50.228;18.936;2023-04-24T13:35:55;4.03;;;3.42;;
40116;SDS011;25829;50.228;18.936;2023-04-24T13:38:59;3.88;;;3.20;;
40116;SDS011;25829;50.228;18.936;2023-04-24T13:42:00;4.45;;;3.08;;
40116;SDS011;25829;50.228;18.936;2023-04-24T13:45:01;4.78;;;3.70;;
40116;SDS011;25829;50.228;18.936;2023-04-24T13:48:02;3.88;;;3.53;;
40116;SDS011;25829;50.228;18.936;2023-04-24T13:51:09;4.43;;;4.03;;
40116;SDS011;25829;50.228;18.936;2023-04-24T13:54:18;4.57;;;3.70;;
40116;SDS011;25829;50.228;18.936;2023-04-24T13:57:28;5.75;;;3.75;;
40116;SDS011;25829;50.228;18.936;2023-04-24T14:00:32;7.55;;;4.43;;
40116;SDS011;25829;50.228;18.936;2023-04-24T14:03:33;4.63;;;4.15;;
40116;SDS011;25829;50.228;18.936;2023-04-24T14:06:36;6.75;;;4.85;;
40116;SDS011;25829;50.228;18.936;2023-04-24T14:09:37;5.00;;;4.50;;
40116;SDS011;25829;50.228;18.936;2023-04-24T14:12:41;5.70;;;4.90;;
40116;SDS011;25829;50.228;18.936;2023-04-24T14:18:55;4.70;;;4.20;;
40116;SDS011;25829;50.228;18.936;2023-04-24T14:21:56;7.47;;;4.90;;
40116;SDS011;25829;50.228;18.936;2023-04-24T14:25:13;4.30;;;3.45;;
40116;SDS011;25829;50.228;18.936;2023-04-24T14:28:23;4.28;;;3.88;;
40116;SDS011;25829;50.228;18.936;2023-04-24T14:31:32;3.60;;;3.30;;
40116;SDS011;25829;50.228;18.936;2023-04-24T14:34:36;4.13;;;3.72;;
40116;SDS011;25829;50.228;18.936;2023-04-24T14:37:37;5.13;;;3.55;;
40116;SDS011;25829;50.228;18.936;2023-04-24T14:40:38;4.03;;;3.63;;
40116;SDS011;25829;50.228;18.936;2023-04-24T14:43:39;6.32;;;3.83;;
40116;SDS011;25829;50.228;18.936;2023-04-24T14:46:41;4.20;;;3.70;;
40116;SDS011;25829;50.228;18.936;2023-04-24T14:49:48;4.65;;;3.30;;
40116;SDS011;25829;50.228;18.936;2023-04-24T14:52:58;3.50;;;2.78;;
40116;SDS011;25829;50.228;18.936;2023-04-24T14:55:58;4.05;;;2.83;;
40116;SDS011;25829;50.228;18.936;2023-04-24T14:58:59;4.50;;;3.25;;
40116;SDS011;25829;50.228;18.936;2023-04-24T15:02:00;4.50;;;3.08;;
40116;SDS011;25829;50.228;18.936;2023-04-24T15:05:01;5.50;;;4.32;;
40116;SDS011;25829;50.228;18.936;2023-04-24T15:08:07;6.05;;;3.17;;
40116;SDS011;25829;50.228;18.936;2023-04-24T15:11:08;4.32;;;3.10;;
40116;SDS011;25829;50.228;18.936;2023-04-24T15:14:19;3.28;;;2.97;;
40116;SDS011;25829;50.228;18.936;2023-04-24T15:17:34;2.80;;;2.60;;
40116;SDS011;25829;50.228;18.936;2023-04-24T15:20:38;3.20;;;2.90;;
40116;SDS011;25829;50.228;18.936;2023-04-24T15:23:52;2.80;;;2.60;;
40116;SDS011;25829;50.228;18.936;2023-04-24T15:27:01;2.97;;;2.67;;
40116;SDS011;25829;50.228;18.936;2023-04-24T15:30:24;2.90;;;2.67;;
40116;SDS011;25829;50.228;18.936;2023-04-24T15:33:28;2.90;;;2.70;;
40116;SDS011;25829;50.228;18.936;2023-04-24T15:36:43;2.72;;;2.53;;
40116;SDS011;25829;50.228;18.936;2023-04-24T15:39:47;3.20;;;2.67;;
40116;SDS011;25829;50.228;18.936;2023-04-24T15:43:01;4.22;;;2.60;;
40116;SDS011;25829;50.228;18.936;2023-04-24T15:49:28;2.95;;;2.70;;
40116;SDS011;25829;50.228;18.936;2023-04-24T15:52:43;3.30;;;3.00;;
40116;SDS011;25829;50.228;18.936;2023-04-24T15:56:18;4.00;;;3.42;;
40116;SDS011;25829;50.228;18.936;2023-04-24T15:59:19;3.45;;;3.15;;
40116;SDS011;25829;50.228;18.936;2023-04-24T16:02:22;5.03;;;3.28;;
40116;SDS011;25829;50.228;18.936;2023-04-24T16:05:28;8.05;;;3.53;;
40116;SDS011;25829;50.228;18.936;2023-04-24T16:08:29;3.88;;;3.50;;
40116;SDS011;25829;50.228;18.936;2023-04-24T16:11:31;4.63;;;3.72;;
40116;SDS011;25829;50.228;18.936;2023-04-24T16:14:53;4.45;;;3.83;;
40116;SDS011;25829;50.228;18.936;2023-04-24T16:17:55;4.47;;;4.07;;
40116;SDS011;25829;50.228;18.936;2023-04-24T16:20:59;4.90;;;4.13;;
40116;SDS011;25829;50.228;18.936;2023-04-24T16:31:54;8.27;;;7.40;;
40116;SDS011;25829;50.228;18.936;2023-04-24T16:42:03;6.95;;;5.00;;
40116;SDS011;25829;50.228;18.936;2023-04-24T16:45:22;11.65;;;7.60;;
40116;SDS011;25829;50.228;18.936;2023-04-24T16:48:36;7.65;;;5.75;;
40116;SDS011;25829;50.228;18.936;2023-04-24T16:51:37;6.82;;;5.90;;
40116;SDS011;25829;50.228;18.936;2023-04-24T16:55:00;18.15;;;12.13;;
40116;SDS011;25829;50.228;18.936;2023-04-24T16:58:04;6.90;;;5.55;;
40116;SDS011;25829;50.228;18.936;2023-04-24T17:01:11;8.18;;;5.32;;
40116;SDS011;25829;50.228;18.936;2023-04-24T17:04:11;6.32;;;5.10;;
40116;SDS011;25829;50.228;18.936;2023-04-24T17:07:18;5.28;;;4.78;;
40116;SDS011;25829;50.228;18.936;2023-04-24T17:10:22;7.05;;;5.47;;
40116;SDS011;25829;50.228;18.936;2023-04-24T17:13:29;8.35;;;5.88;;
40116;SDS011;25829;50.228;18.936;2023-04-24T17:16:48;10.57;;;5.78;;
40116;SDS011;25829;50.228;18.936;2023-04-24T17:19:49;9.05;;;4.75;;
40116;SDS011;25829;50.228;18.936;2023-04-24T17:22:52;6.38;;;4.50;;
40116;SDS011;25829;50.228;18.936;2023-04-24T17:25:56;11.60;;;6.95;;
40116;SDS011;25829;50.228;18.936;2023-04-24T17:29:21;11.05;;;6.88;;
40116;SDS011;25829;50.228;18.936;2023-04-24T17:32:21;9.93;;;6.85;;
40116;SDS011;25829;50.228;18.936;2023-04-24T17:35:34;10.63;;;7.70;;
40116;SDS011;25829;50.228;18.936;2023-04-24T17:38:35;6.82;;;5.95;;
40116;SDS011;25829;50.228;18.936;2023-04-24T17:41:36;9.57;;;6.78;;
40116;SDS011;25829;50.228;18.936;2023-04-24T17:44:37;8.90;;;5.75;;
40116;SDS011;25829;50.228;18.936;2023-04-24T17:47:38;8.40;;;6.00;;
40116;SDS011;25829;50.228;18.936;2023-04-24T17:50:38;10.48;;;5.80;;
40116;SDS011;25829;50.228;18.936;2023-04-24T17:53:40;9.20;;;6.40;;
40116;SDS011;25829;50.228;18.936;2023-04-24T17:56:41;8.77;;;7.57;;
40116;SDS011;25829;50.228;18.936;2023-04-24T17:59:45;8.40;;;6.07;;
40116;SDS011;25829;50.228;18.936;2023-04-24T18:02:46;7.07;;;5.45;;
40116;SDS011;25829;50.228;18.936;2023-04-24T18:05:48;9.95;;;6.10;;
40116;SDS011;25829;50.228;18.936;2023-04-24T18:08:49;5.75;;;5.25;;
40116;SDS011;25829;50.228;18.936;2023-04-24T18:11:50;5.65;;;5.05;;
40116;SDS011;25829;50.228;18.936;2023-04-24T18:14:51;6.38;;;5.78;;
40116;SDS011;25829;50.228;18.936;2023-04-24T18:17:51;8.23;;;6.00;;
40116;SDS011;25829;50.228;18.936;2023-04-24T18:20:52;7.53;;;6.47;;
40116;SDS011;25829;50.228;18.936;2023-04-24T18:23:53;8.40;;;7.20;;
40116;SDS011;25829;50.228;18.936;2023-04-24T18:26:57;8.43;;;6.55;;
40116;SDS011;25829;50.228;18.936;2023-04-24T18:29:58;8.07;;;6.75;;
40116;SDS011;25829;50.228;18.936;2023-04-24T18:33:05;7.85;;;6.22;;
40116;SDS011;25829;50.228;18.936;2023-04-24T18:36:09;8.23;;;6.90;;
40116;SDS011;25829;50.228;18.936;2023-04-24T18:39:10;12.30;;;7.30;;
40116;SDS011;25829;50.228;18.936;2023-04-24T18:42:12;10.85;;;7.30;;
40116;SDS011;25829;50.228;18.936;2023-04-24T18:45:13;11.55;;;8.43;;
40116;SDS011;25829;50.228;18.936;2023-04-24T18:48:14;11.85;;;8.70;;
40116;SDS011;25829;50.228;18.936;2023-04-24T18:51:14;11.95;;;7.75;;
40116;SDS011;25829;50.228;18.936;2023-04-24T18:54:15;8.70;;;7.68;;
40116;SDS011;25829;50.228;18.936;2023-04-24T18:57:16;10.43;;;8.88;;
40116;SDS011;25829;50.228;18.936;2023-04-24T19:00:17;10.57;;;8.68;;
40116;SDS011;25829;50.228;18.936;2023-04-24T19:03:18;12.63;;;8.90;;
40116;SDS011;25829;50.228;18.936;2023-04-24T19:06:19;13.65;;;9.63;;
40116;SDS011;25829;50.228;18.936;2023-04-24T19:09:20;13.27;;;10.77;;
40116;SDS011;25829;50.228;18.936;2023-04-24T19:12:21;13.32;;;10.68;;
40116;SDS011;25829;50.228;18.936;2023-04-24T19:15:25;13.32;;;11.25;;
40116;SDS011;25829;50.228;18.936;2023-04-24T19:18:29;15.43;;;11.80;;
40116;SDS011;25829;50.228;18.936;2023-04-24T19:22:03;14.45;;;11.07;;
40116;SDS011;25829;50.228;18.936;2023-04-24T19:25:04;15.45;;;12.30;;
40116;SDS011;25829;50.228;18.936;2023-04-24T19:28:05;16.58;;;12.00;;
40116;SDS011;25829;50.228;18.936;2023-04-24T19:31:06;16.15;;;11.63;;
40116;SDS011;25829;50.228;18.936;2023-04-24T19:34:07;16.48;;;11.82;;
40116;SDS011;25829;50.228;18.936;2023-04-24T19:37:08;15.13;;;11.68;;
40116;SDS011;25829;50.228;18.936;2023-04-24T19:40:09;16.02;;;12.57;;
40116;SDS011;25829;50.228;18.936;2023-04-24T19:43:11;17.52;;;13.32;;
40116;SDS011;25829;50.228;18.936;2023-04-24T19:46:12;16.17;;;11.95;;
40116;SDS011;25829;50.228;18.936;2023-04-24T19:49:13;15.50;;;11.65;;
40116;SDS011;25829;50.228;18.936;2023-04-24T19:52:15;16.42;;;12.52;;
40116;SDS011;25829;50.228;18.936;2023-04-24T19:55:16;15.93;;;12.65;;
40116;SDS011;25829;50.228;18.936;2023-04-24T19:58:17;18.20;;;12.68;;
40116;SDS011;25829;50.228;18.936;2023-04-24T20:01:18;17.15;;;12.77;;
40116;SDS011;25829;50.228;18.936;2023-04-24T20:04:19;18.42;;;12.88;;
40116;SDS011;25829;50.228;18.936;2023-04-24T20:11:16;16.83;;;13.20;;
40116;SDS011;25829;50.228;18.936;2023-04-24T20:21:56;16.52;;;14.13;;
40116;SDS011;25829;50.228;18.936;2023-04-24T20:24:57;16.00;;;13.10;;